Teddy Meyer — WDF9635 — position and weather

sailwx.info

Track history (hours):
 
Tides and Currents Weather Stations Pressure Air Temp Water Temp Dewpoint Dewpoint Depression Visibility Wind Speed Wind Dir Waves Ship Positions

Teddy Meyer

Owner: LeBeouf Bros. Towing, LLC, Houma, LA. More information available from US FCC via Universal Licensing System and Coast Guard Vessel Documentation Center.

Last reported at 2017-Jan-20 19:34 UTC. Time now 2017-Jan-20 20:14 UTC.
Position N 29°42' W 095°03'.

; draft 3 m.

MMSI: 367507220.

Date/timePositionNaut miles runAvg speedWind from/ knotsBaromVisibWave heightAir tempDewpointWater temp
2017-Jan-20 19:34N 29°42' W 095°03'0 0.0
2017-Jan-20 16:32N 29°42' W 095°03'1 0.8
2017-Jan-20 15:28N 29°42' W 095°02'4 3.9
2017-Jan-20 14:34N 29°45' W 095°04'7 0.4
2017-Jan-19 21:04N 29°44' W 095°12'0 0.2
2017-Jan-19 20:31N 29°44' W 095°12'6 0.3
2017-Jan-18 23:30N 29°45' W 095°06'4 4.6
2017-Jan-18 22:32N 29°43' W 095°01'2 1.6
2017-Jan-18 21:33N 29°42' W 095°03'0 0.0
2017-Jan-18 19:31N 29°42' W 095°03'0 0.0
2017-Jan-18 18:20N 29°42' W 095°03'0 0.0
2017-Jan-18 17:32N 29°42' W 095°03'0 0.0
2017-Jan-18 16:12N 29°42' W 095°03'0 0.0
2017-Jan-18 15:26N 29°42' W 095°03'0 0.0
2017-Jan-18 14:33N 29°42' W 095°03'4 3.6
2017-Jan-18 13:30N 29°45' W 095°06'1 0.4
2017-Jan-18 11:28N 29°46' W 095°06'4 0.4
2017-Jan-18 00:31N 29°43' W 095°03'0 0.1
2017-Jan-17 23:32N 29°42' W 095°03'0 0.0
2017-Jan-17 22:34N 29°42' W 095°03'2 2.0
2017-Jan-17 21:33N 29°44' W 095°04'3 2.8
2017-Jan-17 20:26N 29°46' W 095°07'0 0.5
2017-Jan-17 19:34N 29°46' W 095°06'5 4.9
2017-Jan-17 18:26N 29°43' W 095°01'1 1.6
2017-Jan-17 17:34N 29°42' W 095°03'0 0.0
2017-Jan-17 16:34N 29°42' W 095°03'0 0.0
2017-Jan-17 15:32N 29°42' W 095°03'0 0.0
2017-Jan-16 15:33N 29°42' W 095°03'0 0.0
2017-Jan-15 23:33N 29°42' W 095°03'0 0.0
2017-Jan-15 22:34N 29°42' W 095°03'0 0.0
2017-Jan-15 21:33N 29°42' W 095°03'0 0.0
2017-Jan-15 20:33N 29°42' W 095°03'0 0.0
2017-Jan-15 19:33N 29°42' W 095°03'0 0.0
2017-Jan-15 18:33N 29°42' W 095°03'0 0.0
2017-Jan-15 17:34N 29°42' W 095°03'0 0.0
2017-Jan-15 16:33N 29°42' W 095°03'0 0.0
2017-Jan-15 15:33N 29°42' W 095°03'0 0.0
2017-Jan-15 14:34N 29°42' W 095°03'0 0.0
2017-Jan-14 23:31N 29°42' W 095°03'0 0.0
2017-Jan-14 22:34N 29°42' W 095°03'0 0.0
2017-Jan-14 21:34N 29°42' W 095°03'0 0.0
2017-Jan-14 20:34N 29°42' W 095°03'0 0.0
2017-Jan-14 19:33N 29°42' W 095°03'0 0.0
2017-Jan-14 18:34N 29°42' W 095°03'0 0.0
2017-Jan-14 17:33N 29°42' W 095°03'0 0.0
2017-Jan-14 16:33N 29°42' W 095°03'0 0.0
2017-Jan-14 15:33N 29°42' W 095°03'0 0.0
2017-Jan-14 14:34N 29°42' W 095°03'0 0.0
2017-Jan-14 13:33N 29°42' W 095°03'0 0.0
2017-Jan-14 12:28N 29°42' W 095°03'0 0.0
2017-Jan-14 10:23N 29°42' W 095°03'0 0.0
2017-Jan-14 09:27N 29°42' W 095°03'0 0.0
2017-Jan-14 07:33N 29°42' W 095°03'0 0.0
2017-Jan-13 23:34N 29°42' W 095°03'0 0.0
2017-Jan-13 22:33N 29°42' W 095°03'0 0.0
2017-Jan-13 21:34N 29°42' W 095°03'0 0.0
2017-Jan-13 20:33N 29°42' W 095°03'0 0.0
2017-Jan-13 19:33N 29°42' W 095°03'0 0.0
2017-Jan-13 18:33N 29°42' W 095°03'0 0.0
2017-Jan-13 17:33N 29°42' W 095°03'0 0.0
2017-Jan-13 16:32N 29°42' W 095°03'0 0.0
2017-Jan-13 15:33N 29°42' W 095°03'0 0.0
2017-Jan-13 14:33N 29°42' W 095°03'0 0.0
2017-Jan-13 00:25N 29°42' W 095°03'0 0.0
2017-Jan-12 23:33N 29°42' W 095°03'0 0.0
2017-Jan-12 22:34N 29°42' W 095°03'0 0.0
2017-Jan-12 21:33N 29°42' W 095°03'0 0.0
2017-Jan-12 20:34N 29°42' W 095°03'0 0.0
2017-Jan-12 19:33N 29°42' W 095°03'0 0.0
2017-Jan-12 18:33N 29°42' W 095°03'0 0.0
2017-Jan-12 17:33N 29°42' W 095°03'0 0.0
2017-Jan-12 16:33N 29°42' W 095°03'0 0.0
2017-Jan-12 15:34N 29°42' W 095°03'0 0.0
2017-Jan-12 14:34N 29°42' W 095°03'0 0.0
2017-Jan-12 13:33N 29°42' W 095°03'0 0.0
2017-Jan-11 23:31N 29°42' W 095°03'1 1.2
2017-Jan-11 22:22N 29°44' W 095°03'0 0.0
2017-Jan-11 21:29N 29°44' W 095°03'1 0.1
2017-Jan-10 23:33N 29°44' W 095°02'1 1.4
2017-Jan-10 22:34N 29°42' W 095°02'1 0.6
2017-Jan-10 21:33N 29°42' W 095°03'0 0.0
2017-Jan-10 20:28N 29°42' W 095°03'  
Track history (hours):
 
Tides and Currents Weather Stations Pressure Air Temp Water Temp Dewpoint Dewpoint Depression Visibility Wind Speed Wind Dir Waves Ship Positions

Teddy Meyer

Owner: LeBeouf Bros. Towing, LLC, Houma, LA. More information available from US FCC via Universal Licensing System and Coast Guard Vessel Documentation Center.

Last reported at 2017-Jan-20 19:34 UTC. Time now 2017-Jan-20 20:14 UTC.
Position N 29°42' W 095°03'.

; draft 3 m.

MMSI: 367507220.

Date/timePositionNaut miles runAvg speedWind from/ knotsBaromVisibWave heightAir tempDewpointWater temp
2017-Jan-20 19:34N 29°42' W 095°03'0 0.0
2017-Jan-20 16:32N 29°42' W 095°03'1 0.8
2017-Jan-20 15:28N 29°42' W 095°02'4 3.9
2017-Jan-20 14:34N 29°45' W 095°04'7 0.4
2017-Jan-19 21:04N 29°44' W 095°12'0 0.2
2017-Jan-19 20:31N 29°44' W 095°12'6 0.3
2017-Jan-18 23:30N 29°45' W 095°06'4 4.6
2017-Jan-18 22:32N 29°43' W 095°01'2 1.6
2017-Jan-18 21:33N 29°42' W 095°03'0 0.0
2017-Jan-18 19:31N 29°42' W 095°03'0 0.0
2017-Jan-18 18:20N 29°42' W 095°03'0 0.0
2017-Jan-18 17:32N 29°42' W 095°03'0 0.0
2017-Jan-18 16:12N 29°42' W 095°03'0 0.0
2017-Jan-18 15:26N 29°42' W 095°03'0 0.0
2017-Jan-18 14:33N 29°42' W 095°03'4 3.6
2017-Jan-18 13:30N 29°45' W 095°06'1 0.4
2017-Jan-18 11:28N 29°46' W 095°06'4 0.4
2017-Jan-18 00:31N 29°43' W 095°03'0 0.1
2017-Jan-17 23:32N 29°42' W 095°03'0 0.0
2017-Jan-17 22:34N 29°42' W 095°03'2 2.0
2017-Jan-17 21:33N 29°44' W 095°04'3 2.8
2017-Jan-17 20:26N 29°46' W 095°07'0 0.5
2017-Jan-17 19:34N 29°46' W 095°06'5 4.9
2017-Jan-17 18:26N 29°43' W 095°01'1 1.6
2017-Jan-17 17:34N 29°42' W 095°03'0 0.0
2017-Jan-17 16:34N 29°42' W 095°03'0 0.0
2017-Jan-17 15:32N 29°42' W 095°03'0 0.0
2017-Jan-16 15:33N 29°42' W 095°03'0 0.0
2017-Jan-15 23:33N 29°42' W 095°03'0 0.0
2017-Jan-15 22:34N 29°42' W 095°03'0 0.0
2017-Jan-15 21:33N 29°42' W 095°03'0 0.0
2017-Jan-15 20:33N 29°42' W 095°03'0 0.0
2017-Jan-15 19:33N 29°42' W 095°03'0 0.0
2017-Jan-15 18:33N 29°42' W 095°03'0 0.0
2017-Jan-15 17:34N 29°42' W 095°03'0 0.0
2017-Jan-15 16:33N 29°42' W 095°03'0 0.0
2017-Jan-15 15:33N 29°42' W 095°03'0 0.0
2017-Jan-15 14:34N 29°42' W 095°03'0 0.0
2017-Jan-14 23:31N 29°42' W 095°03'0 0.0
2017-Jan-14 22:34N 29°42' W 095°03'0 0.0
2017-Jan-14 21:34N 29°42' W 095°03'0 0.0
2017-Jan-14 20:34N 29°42' W 095°03'0 0.0
2017-Jan-14 19:33N 29°42' W 095°03'0 0.0
2017-Jan-14 18:34N 29°42' W 095°03'0 0.0
2017-Jan-14 17:33N 29°42' W 095°03'0 0.0
2017-Jan-14 16:33N 29°42' W 095°03'0 0.0
2017-Jan-14 15:33N 29°42' W 095°03'0 0.0
2017-Jan-14 14:34N 29°42' W 095°03'0 0.0
2017-Jan-14 13:33N 29°42' W 095°03'0 0.0
2017-Jan-14 12:28N 29°42' W 095°03'0 0.0
2017-Jan-14 10:23N 29°42' W 095°03'0 0.0
2017-Jan-14 09:27N 29°42' W 095°03'0 0.0
2017-Jan-14 07:33N 29°42' W 095°03'0 0.0
2017-Jan-13 23:34N 29°42' W 095°03'0 0.0
2017-Jan-13 22:33N 29°42' W 095°03'0 0.0
2017-Jan-13 21:34N 29°42' W 095°03'0 0.0
2017-Jan-13 20:33N 29°42' W 095°03'0 0.0
2017-Jan-13 19:33N 29°42' W 095°03'0 0.0
2017-Jan-13 18:33N 29°42' W 095°03'0 0.0
2017-Jan-13 17:33N 29°42' W 095°03'0 0.0
2017-Jan-13 16:32N 29°42' W 095°03'0 0.0
2017-Jan-13 15:33N 29°42' W 095°03'0 0.0
2017-Jan-13 14:33N 29°42' W 095°03'0 0.0
2017-Jan-13 00:25N 29°42' W 095°03'0 0.0
2017-Jan-12 23:33N 29°42' W 095°03'0 0.0
2017-Jan-12 22:34N 29°42' W 095°03'0 0.0
2017-Jan-12 21:33N 29°42' W 095°03'0 0.0
2017-Jan-12 20:34N 29°42' W 095°03'0 0.0
2017-Jan-12 19:33N 29°42' W 095°03'0 0.0
2017-Jan-12 18:33N 29°42' W 095°03'0 0.0
2017-Jan-12 17:33N 29°42' W 095°03'0 0.0
2017-Jan-12 16:33N 29°42' W 095°03'0 0.0
2017-Jan-12 15:34N 29°42' W 095°03'0 0.0
2017-Jan-12 14:34N 29°42' W 095°03'0 0.0
2017-Jan-12 13:33N 29°42' W 095°03'0 0.0
2017-Jan-11 23:31N 29°42' W 095°03'1 1.2
2017-Jan-11 22:22N 29°44' W 095°03'0 0.0
2017-Jan-11 21:29N 29°44' W 095°03'1 0.1
2017-Jan-10 23:33N 29°44' W 095°02'1 1.4
2017-Jan-10 22:34N 29°42' W 095°02'1 0.6
2017-Jan-10 21:33N 29°42' W 095°03'0 0.0
2017-Jan-10 20:28N 29°42' W 095°03'  

Dump ship's entire track history